Airfield :
LOGIN :

Register | Disclaimer

   EN    FR    IT 

 










Legend :    VFR   Marginal VFR   IFR   Intensive IFR   Very Intensive IFR
Visi :
Ceiling :
>= 8 km
>= 3000ft
5 to 8 km
1000 to 3000 ft
1500m to 5 km
500 to 1000 ft
800 to 1500m
200 to 500 ft
< 800m
< 200 ft
Symbols :   Thunderstorms  Fog  Heavy snow  Heavy precipitations  Wind > 20 kt
SIGMETs :     Misc.  Thunderstorms  Icing  Turbulence  Mountain Waves  Volcanic Ashes







- Airport Elevation : 33 ft
- IATA code : MHZ


EGUN - RAF Mildenhall

EXPIRED METARs :
  • 241358Z AUTO 25012G18KT 9999 SCT045 BKN060 25/13 A2985 RMK AO2 SLP111 T02500133
  • 241353Z AUTO 25015G20KT 9999 SCT045 BKN050 BKN070 25/13 A2984 RMK AO2 SLP108
  • 241348Z AUTO 26014G20KT 9999 BKN045 BKN055 BKN070 24/13 A2985 RMK AO2 SLP111
  • 241333Z AUTO 27014G18KT 9999 SCT042 BKN050 BKN070 25/14 A2985 RMK AO2 SLP111
  • 241258Z AUTO 27015G19KT 9999 OVC045 23/14 A2986 RMK AO2 SLP114 T02300137
  • 241158Z AUTO 26012G19KT 9999 OVC038 22/15 A2988 RMK AO2 SLP121 T02160146 10222 20178 55001

TAF TAF EGUN
Valid from the 24 at 12:00 until the 25 at 18:00 UTC


241201Z 2412/2518 24015G20KT 9999 BKN030 QNH2981INS
BECMG 2418/2419 24010G15KT 9999 BKN020 QNH2980INS
TEMPO 2502/2506 BKN015
BECMG 2506/2507 25015G20KT 9999 BKN025 QNH2978INS TX23/2414Z TN12/2504Z
No reported NOTAMs for that airfield.



MET'MAP, your aeronautical weather chart ! - Copyright ORBIFLY December 2007 - Disclaimer

ORBIFLY MET'MAP TEAM :

Programming & Development : Alexandra Zaïnal
Concept & Development : Baudouin d'Aumeries
Co-Development & Prog : Marc-Olivier Méhu
Technical & hardware support : Manuel Goepfert

Contact : metmap@orbifly.com




SOURCES & CREDITS :

   NOAA